Time;durP1;ratioP1;P1;durP2;ratioP2;P2;SDS_P1;SDS_P2;PMS_P1;PMS_P2;Temp;Humidity;BMP_temperature;BMP_pressure;BME280_temperature;BME280_humidity;BME280_pressure;Samples;Min_cycle;Max_cycle;Signal;HPM_P1;HPM_P2
2021/10/20 00:01:55;;;;;;;49.70;30.50;;;;;;;;;;5020650;28;20026;-81
2021/10/20 00:04:22;;;;;;;49.78;30.63;;;;;;;;;;5002964;28;20022;-81
2021/10/20 00:06:48;;;;;;;50.10;31.05;;;;;;;;;;5002967;28;20026;-81
2021/10/20 00:09:14;;;;;;;46.55;30.52;;;;;;;;;;5020111;28;20032;-81
2021/10/20 00:11:40;;;;;;;51.22;30.63;;;;;;;;;;5020294;28;20026;-81
2021/10/20 00:14:06;;;;;;;53.10;30.83;;;;;;;;;;4986391;28;20064;-81
2021/10/20 00:16:32;;;;;;;49.78;31.20;;;;;;;;;;5020205;28;20030;-81
2021/10/20 00:18:58;;;;;;;47.85;29.90;;;;;;;;;;5002428;28;20073;-81
2021/10/20 00:21:26;;;;;;;50.95;31.63;;;;;;;;;;5020075;28;20022;-81
2021/10/20 00:23:53;;;;;;;50.63;30.33;;;;;;;;;;5002475;28;20058;-81
2021/10/20 00:26:42;;;;;;;57.97;31.15;;;;;;;;;;5020067;28;20038;-81
2021/10/20 00:29:08;;;;;;;46.42;29.02;;;;;;;;;;4924419;29;20051;-82
2021/10/20 00:31:34;;;;;;;51.55;30.13;;;;;;;;;;4940678;29;20110;-81
2021/10/20 00:34:00;;;;;;;44.70;29.45;;;;;;;;;;4940445;29;20059;-82
2021/10/20 00:36:26;;;;;;;48.00;29.73;;;;;;;;;;4940279;29;20067;-81
2021/10/20 00:38:53;;;;;;;46.70;28.40;;;;;;;;;;4940465;29;20028;-81
2021/10/20 00:41:19;;;;;;;51.22;30.38;;;;;;;;;;4940408;29;20036;-81
2021/10/20 00:43:45;;;;;;;51.78;31.15;;;;;;;;;;4940329;29;20027;-81
2021/10/20 00:46:11;;;;;;;53.53;32.17;;;;;;;;;;4940285;29;20055;-81
2021/10/20 00:48:37;;;;;;;50.38;32.13;;;;;;;;;;4923841;29;20337;-81
2021/10/20 00:51:04;;;;;;;52.25;31.33;;;;;;;;;;4940495;29;20056;-81
2021/10/20 00:53:30;;;;;;;48.50;31.05;;;;;;;;;;4924215;29;20335;-81
2021/10/20 00:55:56;;;;;;;54.75;30.23;;;;;;;;;;4940050;29;20054;-81
2021/10/20 00:58:22;;;;;;;48.13;29.60;;;;;;;;;;4923433;29;20044;-81
2021/10/20 01:00:48;;;;;;;49.38;30.00;;;;;;;;;;4939891;29;20040;-81
2021/10/20 01:03:14;;;;;;;47.97;30.75;;;;;;;;;;4940024;29;20028;-81
2021/10/20 01:05:40;;;;;;;49.90;31.23;;;;;;;;;;4965816;28;20038;-81
2021/10/20 01:08:07;;;;;;;51.08;31.35;;;;;;;;;;5001017;28;20506;-81
2021/10/20 01:10:33;;;;;;;54.47;31.88;;;;;;;;;;5019338;28;20026;-81
2021/10/20 01:12:59;;;;;;;52.78;33.63;;;;;;;;;;5019212;28;20026;-81
2021/10/20 01:15:30;;;;;;;53.70;32.08;;;;;;;;;;5001260;28;20559;-81
2021/10/20 01:17:56;;;;;;;52.05;32.92;;;;;;;;;;5019062;28;20018;-81
2021/10/20 01:20:24;;;;;;;55.25;33.50;;;;;;;;;;5019053;28;20416;-81
2021/10/20 01:22:50;;;;;;;52.78;34.08;;;;;;;;;;5019034;28;20137;-81
2021/10/20 01:25:17;;;;;;;53.15;33.85;;;;;;;;;;5001221;28;20053;-81
2021/10/20 01:27:43;;;;;;;61.92;38.08;;;;;;;;;;5018840;28;20057;-81
2021/10/20 01:30:10;;;;;;;62.25;38.53;;;;;;;;;;5018761;28;20029;-81
2021/10/20 01:32:36;;;;;;;61.47;37.80;;;;;;;;;;5001434;28;20053;-81
2021/10/20 01:35:02;;;;;;;63.70;38.50;;;;;;;;;;5018882;28;20026;-81
2021/10/20 01:37:28;;;;;;;67.25;41.53;;;;;;;;;;5001372;28;20121;-81
2021/10/20 01:39:56;;;;;;;72.57;44.10;;;;;;;;;;5001322;28;20162;-81
2021/10/20 01:42:23;;;;;;;69.90;41.78;;;;;;;;;;5018682;28;20017;-81
2021/10/20 01:44:49;;;;;;;61.17;37.88;;;;;;;;;;5001242;28;20029;-81
2021/10/20 01:47:19;;;;;;;63.17;39.03;;;;;;;;;;5018591;28;20040;-81
2021/10/20 01:49:45;;;;;;;58.55;36.80;;;;;;;;;;5018453;28;20021;-81
2021/10/20 01:52:11;;;;;;;62.13;37.85;;;;;;;;;;5018402;28;20417;-82
2021/10/20 01:54:37;;;;;;;58.78;38.60;;;;;;;;;;5018414;28;20109;-81
2021/10/20 01:57:03;;;;;;;61.05;39.03;;;;;;;;;;5000919;28;20034;-81
2021/10/20 01:59:29;;;;;;;59.97;39.05;;;;;;;;;;5017864;28;20040;-81
2021/10/20 02:01:55;;;;;;;59.70;39.60;;;;;;;;;;5000838;28;20041;-81
2021/10/20 02:04:21;;;;;;;64.90;40.67;;;;;;;;;;5018277;28;20058;-81
2021/10/20 02:06:47;;;;;;;64.20;39.58;;;;;;;;;;5018252;28;20029;-81
2021/10/20 02:09:14;;;;;;;62.67;40.28;;;;;;;;;;5018221;28;20036;-81
2021/10/20 02:11:45;;;;;;;64.68;39.90;;;;;;;;;;5000824;28;20026;-81
2021/10/20 02:14:12;;;;;;;67.50;40.35;;;;;;;;;;5017954;28;20049;-81
2021/10/20 02:16:39;;;;;;;64.95;39.80;;;;;;;;;;5017811;28;20428;-81
2021/10/20 02:19:05;;;;;;;63.15;39.95;;;;;;;;;;5017135;28;20030;-81
2021/10/20 02:21:31;;;;;;;63.97;40.42;;;;;;;;;;5018111;28;20030;-81
2021/10/20 02:23:57;;;;;;;63.90;40.00;;;;;;;;;;5000164;28;20080;-81
2021/10/20 02:26:23;;;;;;;63.20;41.35;;;;;;;;;;5017800;28;20038;-81
2021/10/20 02:28:49;;;;;;;65.72;43.08;;;;;;;;;;5017558;28;20049;-82
2021/10/20 02:31:18;;;;;;;70.00;42.72;;;;;;;;;;5000339;28;20038;-81
2021/10/20 02:33:44;;;;;;;68.20;42.95;;;;;;;;;;5017929;28;20068;-81
2021/10/20 02:36:10;;;;;;;63.97;42.92;;;;;;;;;;5017348;28;20026;-81
2021/10/20 02:38:37;;;;;;;63.90;42.20;;;;;;;;;;5017744;28;20030;-81
2021/10/20 02:41:03;;;;;;;62.95;41.83;;;;;;;;;;5017665;28;20025;-81
2021/10/20 02:43:33;;;;;;;66.72;43.38;;;;;;;;;;5017558;28;20064;-81
2021/10/20 02:45:59;;;;;;;64.40;41.97;;;;;;;;;;5017371;28;20030;-81
2021/10/20 02:48:25;;;;;;;68.55;44.63;;;;;;;;;;5017755;28;20026;-81
2021/10/20 02:50:51;;;;;;;77.28;46.85;;;;;;;;;;5000229;28;20328;-82
2021/10/20 02:53:17;;;;;;;70.47;47.33;;;;;;;;;;5000259;28;20030;-81
2021/10/20 02:55:43;;;;;;;75.57;48.33;;;;;;;;;;4999618;28;20037;-82
2021/10/20 02:58:09;;;;;;;72.50;47.50;;;;;;;;;;5017278;28;20038;-82
2021/10/20 03:00:35;;;;;;;73.00;47.03;;;;;;;;;;5017333;28;20423;-82
2021/10/20 03:03:01;;;;;;;71.05;46.72;;;;;;;;;;5017530;28;20072;-81
2021/10/20 03:05:27;;;;;;;76.43;48.13;;;;;;;;;;4999978;28;20026;-82
2021/10/20 03:07:54;;;;;;;74.72;48.10;;;;;;;;;;4999519;28;20363;-82
2021/10/20 03:10:20;;;;;;;71.88;47.97;;;;;;;;;;5017423;28;20375;-80
2021/10/20 03:12:47;;;;;;;74.25;48.45;;;;;;;;;;5017152;28;20022;-80
2021/10/20 03:18:17;;;;;;;69.22;45.55;;;;;;;;;;5017478;28;20045;-80
2021/10/20 03:20:43;;;;;;;71.75;47.67;;;;;;;;;;4999679;28;20021;-80
2021/10/20 03:23:09;;;;;;;78.13;48.03;;;;;;;;;;5017329;28;20386;-80
2021/10/20 03:25:35;;;;;;;73.57;47.78;;;;;;;;;;5016935;28;20316;-80
2021/10/20 03:28:01;;;;;;;73.30;47.38;;;;;;;;;;4999039;28;20049;-81
2021/10/20 03:30:27;;;;;;;82.38;52.65;;;;;;;;;;5017772;28;20022;-81
2021/10/20 03:32:53;;;;;;;91.07;54.92;;;;;;;;;;5020943;28;20116;-81
2021/10/20 03:35:19;;;;;;;90.35;56.58;;;;;;;;;;5003444;28;20014;-81
2021/10/20 03:37:46;;;;;;;104.90;61.17;;;;;;;;;;5020912;28;20029;-81
2021/10/20 03:40:13;;;;;;;195.88;89.38;;;;;;;;;;5003445;28;20037;-81
2021/10/20 03:42:39;;;;;;;241.25;100.93;;;;;;;;;;5020842;28;20025;-81
2021/10/20 03:45:06;;;;;;;168.52;79.38;;;;;;;;;;5020662;28;20025;-82
2021/10/20 03:47:32;;;;;;;108.68;59.53;;;;;;;;;;5020725;28;20037;-82
2021/10/20 03:56:17;;;;;;;99.30;56.25;;;;;;;;;;4979417;28;20073;-82
2021/10/20 03:58:43;;;;;;;107.13;64.20;;;;;;;;;;4963615;28;20039;-82
2021/10/20 04:01:09;;;;;;;125.28;73.55;;;;;;;;;;4979651;28;20035;-82
2021/10/20 04:03:37;;;;;;;100.97;63.67;;;;;;;;;;4979601;28;20033;-81
2021/10/20 04:06:03;;;;;;;100.15;63.20;;;;;;;;;;4962848;28;20329;-81
2021/10/20 04:08:29;;;;;;;110.40;68.25;;;;;;;;;;4962774;28;20035;-81
2021/10/20 04:10:55;;;;;;;102.88;60.05;;;;;;;;;;4979430;28;20027;-82
2021/10/20 04:13:21;;;;;;;104.18;65.05;;;;;;;;;;4979426;28;20039;-81
2021/10/20 04:15:48;;;;;;;96.65;58.58;;;;;;;;;;4979356;28;20107;-81
2021/10/20 04:18:14;;;;;;;85.10;51.90;;;;;;;;;;4979295;28;20031;-82
2021/10/20 04:20:40;;;;;;;79.25;49.47;;;;;;;;;;4979252;28;20134;-81
2021/10/20 04:23:06;;;;;;;73.80;47.95;;;;;;;;;;4963082;28;20023;-81
2021/10/20 04:25:32;;;;;;;63.70;45.35;;;;;;;;;;4979329;28;20027;-81
2021/10/20 04:27:58;;;;;;;66.63;44.33;;;;;;;;;;4978806;28;20376;-81
2021/10/20 04:30:24;;;;;;;65.57;43.72;;;;;;;;;;4979144;28;20109;-81
2021/10/20 04:32:50;;;;;;;67.15;42.25;;;;;;;;;;4996154;28;20033;-81
2021/10/20 04:35:22;;;;;;;66.38;45.05;;;;;;;;;;5019851;28;20022;-81
2021/10/20 04:37:48;;;;;;;62.85;43.35;;;;;;;;;;5001870;28;20432;-81
2021/10/20 04:40:14;;;;;;;64.68;43.17;;;;;;;;;;5019855;28;20026;-81
2021/10/20 04:42:40;;;;;;;61.47;41.00;;;;;;;;;;5001384;28;20030;-82
2021/10/20 04:45:07;;;;;;;66.50;44.35;;;;;;;;;;5019836;28;20109;-82
2021/10/20 04:47:33;;;;;;;67.72;43.40;;;;;;;;;;5002366;28;20408;-82
2021/10/20 04:50:00;;;;;;;64.80;44.40;;;;;;;;;;5019858;28;20320;-83
2021/10/20 04:52:27;;;;;;;79.60;48.35;;;;;;;;;;5019606;28;20026;-82
2021/10/20 04:54:54;;;;;;;77.10;49.10;;;;;;;;;;5001711;28;20026;-82
2021/10/20 04:57:20;;;;;;;77.43;47.83;;;;;;;;;;5002187;28;20037;-82
2021/10/20 04:59:46;;;;;;;70.03;46.63;;;;;;;;;;5019392;28;20034;-82
2021/10/20 05:02:12;;;;;;;70.47;45.17;;;;;;;;;;5019340;28;20101;-82
2021/10/20 05:04:38;;;;;;;72.95;43.35;;;;;;;;;;5019400;28;20384;-82
2021/10/20 05:07:04;;;;;;;65.88;42.67;;;;;;;;;;5001339;28;20042;-82
2021/10/20 05:09:30;;;;;;;70.68;44.88;;;;;;;;;;5018933;28;20186;-81
2021/10/20 05:11:56;;;;;;;64.50;42.45;;;;;;;;;;5019200;28;20026;-82
2021/10/20 05:14:22;;;;;;;73.35;44.33;;;;;;;;;;5019116;28;20420;-81
2021/10/20 05:16:49;;;;;;;72.18;42.13;;;;;;;;;;5001703;28;20038;-81
2021/10/20 05:19:15;;;;;;;64.25;43.92;;;;;;;;;;5019248;28;20030;-81
2021/10/20 05:21:41;;;;;;;70.32;42.75;;;;;;;;;;5030382;28;20028;-82
2021/10/20 05:24:07;;;;;;;66.03;41.47;;;;;;;;;;5038233;28;20404;-82
2021/10/20 05:26:33;;;;;;;59.47;42.17;;;;;;;;;;5038519;28;20041;-81
2021/10/20 05:28:59;;;;;;;65.25;41.90;;;;;;;;;;5038524;28;20073;-82
2021/10/20 05:31:26;;;;;;;66.97;42.88;;;;;;;;;;5037962;28;20096;-81
2021/10/20 05:33:52;;;;;;;67.13;42.72;;;;;;;;;;5020983;28;20056;-81
2021/10/20 05:36:18;;;;;;;68.45;44.60;;;;;;;;;;5020325;28;20038;-81
2021/10/20 05:38:44;;;;;;;74.30;44.80;;;;;;;;;;5037841;28;20060;-82
2021/10/20 05:41:10;;;;;;;75.65;43.88;;;;;;;;;;5038542;28;20029;-82
2021/10/20 05:43:36;;;;;;;70.70;42.92;;;;;;;;;;5038540;28;20021;-82
2021/10/20 05:46:02;;;;;;;65.82;41.83;;;;;;;;;;5020977;28;20061;-80
2021/10/20 05:48:28;;;;;;;65.95;42.47;;;;;;;;;;5036857;28;20026;-81
2021/10/20 05:50:54;;;;;;;64.38;40.40;;;;;;;;;;5038383;28;20029;-81
2021/10/20 05:53:21;;;;;;;60.50;39.42;;;;;;;;;;5038126;28;20083;-82
2021/10/20 05:55:47;;;;;;;60.55;39.88;;;;;;;;;;5020640;28;20079;-82
2021/10/20 05:58:32;;;;;;;63.33;39.65;;;;;;;;;;5037741;28;20408;-82
2021/10/20 06:00:58;;;;;;;54.75;37.63;;;;;;;;;;5037397;28;20022;-81
2021/10/20 06:03:24;;;;;;;56.28;37.10;;;;;;;;;;5037755;28;20026;-82
2021/10/20 06:05:50;;;;;;;80.53;50.15;;;;;;;;;;5037938;28;20095;-81
2021/10/20 06:08:16;;;;;;;104.18;71.50;;;;;;;;;;5038054;28;20025;-82
2021/10/20 06:10:43;;;;;;;66.18;48.88;;;;;;;;;;5037898;28;20347;-81
2021/10/20 06:13:09;;;;;;;63.67;42.95;;;;;;;;;;5020034;28;20128;-81
2021/10/20 06:15:35;;;;;;;54.70;39.78;;;;;;;;;;5037636;28;20025;-81
2021/10/20 06:18:02;;;;;;;57.67;37.72;;;;;;;;;;5037668;28;20025;-81
2021/10/20 06:20:28;;;;;;;52.17;36.90;;;;;;;;;;5037813;28;20021;-82
2021/10/20 06:22:54;;;;;;;51.72;35.50;;;;;;;;;;5020149;28;20052;-81
2021/10/20 06:25:20;;;;;;;50.33;33.85;;;;;;;;;;5037790;28;20022;-81
2021/10/20 06:27:47;;;;;;;52.70;34.75;;;;;;;;;;5019019;28;20141;-81
2021/10/20 06:30:13;;;;;;;55.50;33.55;;;;;;;;;;5037465;28;20327;-81
2021/10/20 06:32:42;;;;;;;51.70;35.65;;;;;;;;;;5019948;28;20315;-81
2021/10/20 06:35:10;;;;;;;49.83;34.17;;;;;;;;;;5037472;28;20443;-81
2021/10/20 06:37:36;;;;;;;50.55;34.70;;;;;;;;;;5037413;28;20148;-81
2021/10/20 06:40:03;;;;;;;52.28;34.80;;;;;;;;;;5019820;28;20324;-82
2021/10/20 06:42:29;;;;;;;49.95;34.05;;;;;;;;;;5019700;28;20080;-82
2021/10/20 06:44:56;;;;;;;54.42;35.88;;;;;;;;;;5019564;28;20029;-81
2021/10/20 06:47:23;;;;;;;48.80;35.63;;;;;;;;;;5019116;28;20100;-82
2021/10/20 06:49:49;;;;;;;51.03;35.25;;;;;;;;;;5019619;28;20507;-82
2021/10/20 06:52:15;;;;;;;45.25;34.58;;;;;;;;;;5037305;28;20072;-82
2021/10/20 06:54:41;;;;;;;53.00;36.38;;;;;;;;;;5019930;28;20072;-82
2021/10/20 06:57:07;;;;;;;50.95;34.25;;;;;;;;;;5037292;28;20621;-82
2021/10/20 06:59:33;;;;;;;53.75;33.97;;;;;;;;;;5037103;28;20335;-81
2021/10/20 07:01:59;;;;;;;49.70;34.03;;;;;;;;;;5036949;28;20026;-81
2021/10/20 07:04:26;;;;;;;45.75;33.88;;;;;;;;;;5019532;28;20026;-81
2021/10/20 07:06:54;;;;;;;48.65;33.70;;;;;;;;;;5018270;28;20043;-81
2021/10/20 07:09:21;;;;;;;49.72;34.88;;;;;;;;;;5037019;28;20071;-84
2021/10/20 07:11:47;;;;;;;53.85;35.13;;;;;;;;;;5019093;28;20042;-81
2021/10/20 07:14:13;;;;;;;44.03;31.30;;;;;;;;;;5037048;28;20029;-80
2021/10/20 07:16:40;;;;;;;46.88;33.72;;;;;;;;;;5036703;28;20075;-81
2021/10/20 07:19:07;;;;;;;50.78;33.85;;;;;;;;;;5019062;28;20084;-80
2021/10/20 07:21:34;;;;;;;55.15;33.00;;;;;;;;;;5036966;28;20362;-80
2021/10/20 07:24:00;;;;;;;51.47;34.20;;;;;;;;;;5036798;28;20021;-80
2021/10/20 07:26:26;;;;;;;48.38;33.63;;;;;;;;;;5018347;28;20461;-80
2021/10/20 07:28:52;;;;;;;52.38;33.65;;;;;;;;;;5018453;28;20436;-80
2021/10/20 07:31:19;;;;;;;46.88;33.08;;;;;;;;;;5018099;28;20041;-80
2021/10/20 07:33:45;;;;;;;48.97;34.08;;;;;;;;;;5018889;28;20038;-80
2021/10/20 07:36:11;;;;;;;46.78;33.25;;;;;;;;;;5036535;28;20117;-79
2021/10/20 07:38:37;;;;;;;46.88;32.30;;;;;;;;;;5036378;28;20351;-79
2021/10/20 07:41:03;;;;;;;46.75;31.45;;;;;;;;;;5036345;28;20025;-79
2021/10/20 07:43:29;;;;;;;47.72;32.13;;;;;;;;;;5036705;28;20412;-80
2021/10/20 07:45:56;;;;;;;49.13;33.42;;;;;;;;;;5019018;28;20030;-80
2021/10/20 07:48:22;;;;;;;45.33;30.95;;;;;;;;;;5036833;28;20471;-80
2021/10/20 07:50:48;;;;;;;45.22;31.30;;;;;;;;;;5036529;28;20076;-80
2021/10/20 07:53:14;;;;;;;43.92;32.10;;;;;;;;;;5036779;28;20041;-79
2021/10/20 07:55:41;;;;;;;43.97;31.35;;;;;;;;;;5036498;28;20025;-80
2021/10/20 07:58:07;;;;;;;46.05;30.92;;;;;;;;;;5036488;28;20033;-80
2021/10/20 08:00:33;;;;;;;47.00;30.35;;;;;;;;;;5018580;28;20071;-80
2021/10/20 08:03:01;;;;;;;44.88;30.73;;;;;;;;;;5036416;28;20080;-79
2021/10/20 08:05:27;;;;;;;47.85;32.95;;;;;;;;;;5036702;28;20028;-79
2021/10/20 08:07:53;;;;;;;47.35;32.92;;;;;;;;;;5018596;28;20438;-79
2021/10/20 08:10:21;;;;;;;45.40;30.33;;;;;;;;;;5036344;28;20045;-79
2021/10/20 08:12:47;;;;;;;40.35;30.50;;;;;;;;;;5018975;28;20025;-79
2021/10/20 08:15:15;;;;;;;61.25;41.78;;;;;;;;;;5036346;28;20493;-79
2021/10/20 08:17:41;;;;;;;45.05;30.55;;;;;;;;;;5038931;28;20029;-79
2021/10/20 08:20:09;;;;;;;41.90;29.83;;;;;;;;;;5040246;28;20029;-80
2021/10/20 08:22:35;;;;;;;45.30;30.13;;;;;;;;;;5039906;28;20035;-80
2021/10/20 08:25:02;;;;;;;46.13;30.55;;;;;;;;;;5040033;28;20364;-79
2021/10/20 08:27:28;;;;;;;46.80;32.33;;;;;;;;;;5021741;28;20331;-80
2021/10/20 08:29:54;;;;;;;43.50;31.17;;;;;;;;;;5039690;28;20056;-80
2021/10/20 08:32:20;;;;;;;42.45;31.77;;;;;;;;;;5039674;28;20026;-80
2021/10/20 08:34:47;;;;;;;43.50;29.95;;;;;;;;;;5039647;28;20033;-79
2021/10/20 08:37:13;;;;;;;42.33;29.33;;;;;;;;;;5039698;28;20036;-80
2021/10/20 08:39:39;;;;;;;41.42;29.33;;;;;;;;;;5039682;28;20018;-79
2021/10/20 08:42:05;;;;;;;41.58;30.30;;;;;;;;;;5039479;28;20117;-80
2021/10/20 08:44:32;;;;;;;43.90;30.95;;;;;;;;;;5039492;28;20044;-79
2021/10/20 08:46:59;;;;;;;39.47;29.02;;;;;;;;;;5039379;28;20032;-80
2021/10/20 08:49:25;;;;;;;45.97;32.03;;;;;;;;;;5021562;28;20056;-80
2021/10/20 08:51:52;;;;;;;42.00;29.52;;;;;;;;;;5039560;28;20171;-79
2021/10/20 08:54:18;;;;;;;44.38;29.48;;;;;;;;;;5039250;28;20111;-79
2021/10/20 08:56:45;;;;;;;42.35;29.92;;;;;;;;;;5039256;28;20104;-79
2021/10/20 08:59:12;;;;;;;43.88;29.25;;;;;;;;;;5039118;28;20029;-79
2021/10/20 09:01:38;;;;;;;40.47;28.95;;;;;;;;;;5039110;28;20028;-80
2021/10/20 09:04:08;;;;;;;39.60;28.98;;;;;;;;;;5039516;28;20068;-86
2021/10/20 09:06:35;;;;;;;65.47;43.90;;;;;;;;;;5039218;28;20374;-82
2021/10/20 09:09:03;;;;;;;42.40;31.13;;;;;;;;;;5039195;28;20037;-81
2021/10/20 09:11:33;;;;;;;48.65;31.10;;;;;;;;;;5021535;28;20044;-82
2021/10/20 09:14:11;;;;;;;54.22;37.28;;;;;;;;;;5038984;28;20323;-82
2021/10/20 09:16:39;;;;;;;42.97;30.80;;;;;;;;;;5039171;28;20029;-82
2021/10/20 09:19:12;;;;;;;40.55;28.98;;;;;;;;;;5038980;28;20022;-82
2021/10/20 09:21:57;;;;;;;57.38;38.42;;;;;;;;;;5038838;28;20022;-82
2021/10/20 09:24:34;;;;;;;40.33;28.75;;;;;;;;;;5038853;28;20021;-81
2021/10/20 09:27:02;;;;;;;46.60;31.05;;;;;;;;;;5038447;28;20061;-82
2021/10/20 09:29:29;;;;;;;37.15;28.30;;;;;;;;;;5020644;28;20044;-81
2021/10/20 09:31:55;;;;;;;42.15;30.25;;;;;;;;;;5024089;28;20025;-81
2021/10/20 09:34:22;;;;;;;45.17;30.75;;;;;;;;;;5001376;28;20310;-82
2021/10/20 09:36:52;;;;;;;34.22;26.08;;;;;;;;;;5018641;28;20448;-81
2021/10/20 09:39:18;;;;;;;34.58;26.35;;;;;;;;;;5018741;28;20041;-81
2021/10/20 09:41:44;;;;;;;35.40;26.05;;;;;;;;;;5018640;28;20294;-82
2021/10/20 09:44:13;;;;;;;57.25;38.92;;;;;;;;;;5018616;28;20355;-81
2021/10/20 09:46:41;;;;;;;68.93;46.67;;;;;;;;;;5018492;28;20041;-80
2021/10/20 09:49:15;;;;;;;46.33;33.95;;;;;;;;;;5018572;28;20026;-81
2021/10/20 09:51:41;;;;;;;47.50;34.33;;;;;;;;;;5018569;28;20030;-80
2021/10/20 09:54:41;;;;;;;33.92;25.67;;;;;;;;;;5000959;28;20076;-80
2021/10/20 09:57:07;;;;;;;38.22;26.85;;;;;;;;;;4938792;29;20378;-81
2021/10/20 09:59:34;;;;;;;32.67;25.73;;;;;;;;;;4938999;29;20059;-82
2021/10/20 10:02:00;;;;;;;34.38;25.13;;;;;;;;;;4939062;29;20103;-82
2021/10/20 10:04:26;;;;;;;34.35;25.58;;;;;;;;;;4939137;29;20082;-82
2021/10/20 10:06:53;;;;;;;32.65;25.50;;;;;;;;;;4923179;29;20044;-82
2021/10/20 10:09:19;;;;;;;36.40;25.20;;;;;;;;;;4938963;29;20115;-82
2021/10/20 10:11:52;;;;;;;37.25;24.58;;;;;;;;;;4938741;29;20024;-81
2021/10/20 10:14:21;;;;;;;38.13;25.65;;;;;;;;;;4938723;29;20546;-82
2021/10/20 10:16:48;;;;;;;41.90;26.58;;;;;;;;;;4938628;29;20064;-81
2021/10/20 10:19:15;;;;;;;37.00;25.33;;;;;;;;;;4922552;29;20346;-81
2021/10/20 10:21:42;;;;;;;35.40;25.60;;;;;;;;;;4938630;29;20053;-82
2021/10/20 10:24:10;;;;;;;36.50;25.98;;;;;;;;;;4938738;29;20312;-82
2021/10/20 10:26:38;;;;;;;31.73;25.20;;;;;;;;;;4938479;29;20422;-82
2021/10/20 10:29:08;;;;;;;35.00;24.88;;;;;;;;;;4938259;29;20064;-81
2021/10/20 10:31:36;;;;;;;35.60;23.10;;;;;;;;;;4943347;28;20380;-82
2021/10/20 10:34:02;;;;;;;39.00;24.92;;;;;;;;;;5000461;28;20038;-82
2021/10/20 10:36:29;;;;;;;33.20;25.27;;;;;;;;;;5000296;28;20053;-82
2021/10/20 10:39:01;;;;;;;31.95;24.60;;;;;;;;;;5017815;28;20017;-81
2021/10/20 10:41:30;;;;;;;29.33;23.13;;;;;;;;;;5019471;28;20032;-81
2021/10/20 10:44:07;;;;;;;40.20;24.63;;;;;;;;;;5017545;28;20061;-81
2021/10/20 10:46:34;;;;;;;34.28;23.83;;;;;;;;;;5017616;28;20104;-81
2021/10/20 10:49:01;;;;;;;29.42;21.45;;;;;;;;;;5017835;28;20026;-82
2021/10/20 10:51:27;;;;;;;26.17;20.42;;;;;;;;;;5000015;28;20115;-81
2021/10/20 10:54:02;;;;;;;26.10;18.25;;;;;;;;;;5000252;28;20412;-82
2021/10/20 10:56:29;;;;;;;24.15;16.83;;;;;;;;;;5017267;28;20034;-82
2021/10/20 10:59:06;;;;;;;26.92;18.83;;;;;;;;;;5017447;28;20064;-82
2021/10/20 11:01:50;;;;;;;24.08;18.70;;;;;;;;;;5017469;28;20423;-82
2021/10/20 11:04:19;;;;;;;27.23;16.55;;;;;;;;;;4999877;28;20069;-81
2021/10/20 11:06:46;;;;;;;25.08;16.58;;;;;;;;;;5017375;28;20026;-82
2021/10/20 11:09:16;;;;;;;25.70;15.20;;;;;;;;;;5017329;28;20036;-81
2021/10/20 11:11:49;;;;;;;28.50;15.60;;;;;;;;;;5016948;28;20034;-82
2021/10/20 11:14:16;;;;;;;20.63;15.02;;;;;;;;;;5017378;28;20030;-82
2021/10/20 11:16:42;;;;;;;94.70;40.40;;;;;;;;;;4999778;28;20042;-82
2021/10/20 11:19:08;;;;;;;31.30;18.23;;;;;;;;;;5017500;28;20022;-81
2021/10/20 11:21:34;;;;;;;27.00;17.60;;;;;;;;;;5017024;28;20022;-82
2021/10/20 11:24:01;;;;;;;20.02;15.07;;;;;;;;;;5017091;28;20018;-81
2021/10/20 11:26:30;;;;;;;19.08;13.65;;;;;;;;;;4999563;28;20033;-82
2021/10/20 11:29:05;;;;;;;24.80;16.48;;;;;;;;;;4999555;28;20084;-81
2021/10/20 11:31:31;;;;;;;23.85;18.42;;;;;;;;;;5017367;28;20032;-81
2021/10/20 11:34:14;;;;;;;20.42;15.70;;;;;;;;;;5017222;28;20021;-81
2021/10/20 11:36:44;;;;;;;18.65;13.95;;;;;;;;;;5016800;28;20387;-82
2021/10/20 11:39:10;;;;;;;18.60;13.80;;;;;;;;;;5016981;28;20022;-82
2021/10/20 11:41:37;;;;;;;17.75;13.38;;;;;;;;;;4999641;28;20026;-81
2021/10/20 11:44:04;;;;;;;22.85;16.45;;;;;;;;;;5016840;28;20026;-81
2021/10/20 11:46:37;;;;;;;22.92;16.15;;;;;;;;;;5017134;28;20060;-81
2021/10/20 11:49:03;;;;;;;20.55;15.02;;;;;;;;;;4999520;28;20087;-81
2021/10/20 11:51:31;;;;;;;26.48;15.38;;;;;;;;;;5017758;28;20026;-82
2021/10/20 11:53:57;;;;;;;23.05;15.23;;;;;;;;;;5020669;28;20420;-81
2021/10/20 11:56:23;;;;;;;21.55;14.75;;;;;;;;;;5020651;28;20404;-81
2021/10/20 11:58:49;;;;;;;17.27;12.25;;;;;;;;;;5003262;28;20030;-81
2021/10/20 12:01:16;;;;;;;22.17;12.95;;;;;;;;;;5020820;28;20026;-81
2021/10/20 12:03:43;;;;;;;18.88;12.75;;;;;;;;;;5020311;28;20026;-81
2021/10/20 12:06:11;;;;;;;20.38;15.52;;;;;;;;;;5003120;28;20034;-82
2021/10/20 12:08:42;;;;;;;53.60;33.83;;;;;;;;;;5020426;28;20026;-82
2021/10/20 12:11:10;;;;;;;28.63;16.42;;;;;;;;;;5003194;28;20339;-81
2021/10/20 12:13:37;;;;;;;27.23;20.85;;;;;;;;;;5002799;28;20026;-82
2021/10/20 12:16:03;;;;;;;29.73;21.17;;;;;;;;;;5020276;28;20030;-82
2021/10/20 12:18:30;;;;;;;17.35;13.77;;;;;;;;;;5020337;28;20029;-81
2021/10/20 12:20:57;;;;;;;17.48;12.80;;;;;;;;;;5003060;28;20412;-81
2021/10/20 12:23:30;;;;;;;21.73;13.85;;;;;;;;;;5020253;28;20029;-81
2021/10/20 12:25:56;;;;;;;22.77;11.20;;;;;;;;;;4985826;28;20432;-81
2021/10/20 12:28:24;;;;;;;18.08;12.07;;;;;;;;;;5001735;28;20045;-81
2021/10/20 12:30:51;;;;;;;21.85;14.02;;;;;;;;;;5019761;28;20026;-82
2021/10/20 12:33:20;;;;;;;22.33;13.70;;;;;;;;;;5020027;28;20133;-82
2021/10/20 12:35:47;;;;;;;17.50;12.40;;;;;;;;;;5002679;28;20357;-84
2021/10/20 12:38:16;;;;;;;17.40;11.73;;;;;;;;;;5019796;28;20033;-82
2021/10/20 12:40:43;;;;;;;17.75;13.02;;;;;;;;;;5020128;28;20084;-82
2021/10/20 12:43:12;;;;;;;19.95;11.65;;;;;;;;;;5019913;28;20018;-82
2021/10/20 12:45:38;;;;;;;32.42;14.18;;;;;;;;;;5019920;28;20026;-82
2021/10/20 12:48:09;;;;;;;20.92;12.57;;;;;;;;;;5019816;28;20109;-82
2021/10/20 12:50:38;;;;;;;22.00;11.90;;;;;;;;;;5019795;28;20057;-83
2021/10/20 12:53:13;;;;;;;54.40;35.78;;;;;;;;;;5002522;28;20040;-82
2021/10/20 12:55:39;;;;;;;22.48;15.20;;;;;;;;;;4986681;28;20029;-82
2021/10/20 12:58:11;;;;;;;20.60;12.48;;;;;;;;;;5019455;28;20034;-82
2021/10/20 13:00:37;;;;;;;;;;;;;;;;;;5002702;28;20427;-82
2021/10/20 13:03:03;;;;;;;29.33;13.10;;;;;;;;;;5018498;28;19996;-82
2021/10/20 13:05:30;;;;;;;21.55;11.93;;;;;;;;;;5019772;28;20067;-82
2021/10/20 13:07:56;;;;;;;17.50;11.85;;;;;;;;;;5019642;28;20354;-82
2021/10/20 13:10:22;;;;;;;16.65;12.43;;;;;;;;;;5001906;28;20046;-82
2021/10/20 13:13:00;;;;;;;17.83;11.30;;;;;;;;;;5019375;28;20018;-82
2021/10/20 13:15:29;;;;;;;17.35;12.38;;;;;;;;;;5019475;28;20034;-82
2021/10/20 13:17:55;;;;;;;22.50;12.93;;;;;;;;;;5019207;28;20041;-82
2021/10/20 13:20:21;;;;;;;30.77;13.63;;;;;;;;;;5001829;28;20420;-83
2021/10/20 13:22:47;;;;;;;49.72;13.75;;;;;;;;;;5019149;28;20357;-81
2021/10/20 13:25:14;;;;;;;33.75;13.38;;;;;;;;;;5018922;28;20073;-82
2021/10/20 13:27:40;;;;;;;19.73;11.77;;;;;;;;;;5018773;28;20057;-82
2021/10/20 13:30:08;;;;;;;22.60;13.02;;;;;;;;;;5018887;28;20084;-82
2021/10/20 13:32:34;;;;;;;18.73;12.00;;;;;;;;;;5018726;28;20053;-82
2021/10/20 13:35:02;;;;;;;29.58;14.45;;;;;;;;;;5018527;28;20021;-81
2021/10/20 13:37:29;;;;;;;26.00;14.02;;;;;;;;;;5001402;28;20030;-82
2021/10/20 13:39:57;;;;;;;28.42;15.23;;;;;;;;;;5018704;28;20022;-81
2021/10/20 13:42:23;;;;;;;22.02;12.85;;;;;;;;;;5018757;28;20049;-82
2021/10/20 13:44:50;;;;;;;19.25;11.80;;;;;;;;;;5001371;28;20022;-82
2021/10/20 13:47:16;;;;;;;24.40;12.63;;;;;;;;;;5018031;28;20030;-82
2021/10/20 13:49:42;;;;;;;19.45;13.00;;;;;;;;;;5000626;28;20034;-81
2021/10/20 13:52:08;;;;;;;26.58;12.30;;;;;;;;;;5001212;28;20161;-80
2021/10/20 13:54:34;;;;;;;20.23;12.85;;;;;;;;;;5018580;28;20026;-81
2021/10/20 13:57:01;;;;;;;23.08;14.18;;;;;;;;;;5018534;28;20038;-82
2021/10/20 13:59:28;;;;;;;19.70;13.57;;;;;;;;;;5018311;28;20029;-81
2021/10/20 14:01:54;;;;;;;23.98;14.05;;;;;;;;;;5018280;28;20033;-82
2021/10/20 14:04:20;;;;;;;25.30;16.80;;;;;;;;;;5000653;28;20463;-82
2021/10/20 14:06:53;;;;;;;19.27;13.23;;;;;;;;;;5000831;28;20049;-81
2021/10/20 14:09:19;;;;;;;24.58;13.07;;;;;;;;;;5018341;28;20360;-81
2021/10/20 14:11:45;;;;;;;37.70;21.88;;;;;;;;;;5000169;28;20034;-81
2021/10/20 14:14:11;;;;;;;22.02;14.40;;;;;;;;;;5017842;28;20034;-82
2021/10/20 14:16:37;;;;;;;23.98;13.10;;;;;;;;;;5017929;28;20048;-81
2021/10/20 14:19:03;;;;;;;20.92;13.85;;;;;;;;;;4999640;28;20080;-81
2021/10/20 14:21:29;;;;;;;21.30;13.13;;;;;;;;;;5018176;28;20046;-81
2021/10/20 14:23:55;;;;;;;20.52;13.23;;;;;;;;;;5017920;28;20029;-81
2021/10/20 14:26:21;;;;;;;23.20;14.50;;;;;;;;;;5017920;28;20026;-81